JPCONC VOBL-WSSS
Flight info
| Callsign | JPCONC |
|---|---|
| Flight time | N/A |
| Altitude | 37000 |
| Route | TULNA7B TULNA W116 MMV P761 IDASO N571 GUNIP R467 VKL A464 ARAMA ARAMA1A |
| Aircraft | CONC/H-SDE2E3FGHIRYW/X |
Departure
| Time | 2026-04-30 09:54 |
|---|---|
| Airport | Kempegowda International Airport Bengaluru (VOBL) |
Arrival
| Time | N/A |
|---|---|
| Airport | Singapore Changi Airport (WSSS) |
| Time | Latitude | Longitude | Altitude | Speed | Heading |
|---|---|---|---|---|---|
| 2026-04-30 09:33 | 13.20179 | 77.71174 | 2959 ft | 0 kts | 177° |
| 2026-04-30 09:40 | 13.20189 | 77.71174 | 2943 ft | 2 kts | 175° |
| 2026-04-30 09:40 | 13.20205 | 77.71172 | 2947 ft | 2 kts | 175° |
| 2026-04-30 09:40 | 13.20222 | 77.71170 | 2947 ft | 2 kts | 181° |
| 2026-04-30 09:40 | 13.20241 | 77.71167 | 2952 ft | 2 kts | 77° |
| 2026-04-30 09:41 | 13.20244 | 77.71151 | 2947 ft | 2 kts | 33° |
| 2026-04-30 09:41 | 13.20243 | 77.71147 | 2954 ft | 0 kts | 79° |
| 2026-04-30 09:49 | 13.20248 | 77.71155 | 2946 ft | 3 kts | 63° |
| 2026-04-30 09:49 | 13.20274 | 77.71166 | 2949 ft | 5 kts | 18° |
| 2026-04-30 09:50 | 13.20328 | 77.71173 | 2946 ft | 10 kts | 7° |
| 2026-04-30 09:50 | 13.20412 | 77.71174 | 2951 ft | 14 kts | 1° |
| 2026-04-30 09:50 | 13.20503 | 77.71201 | 2951 ft | 14 kts | 48° |
| 2026-04-30 09:50 | 13.20521 | 77.71305 | 2947 ft | 17 kts | 90° |
| 2026-04-30 09:51 | 13.20521 | 77.71442 | 2945 ft | 21 kts | 90° |
| 2026-04-30 09:51 | 13.20520 | 77.71607 | 2944 ft | 25 kts | 90° |
| 2026-04-30 09:51 | 13.20520 | 77.71795 | 2941 ft | 29 kts | 90° |
| 2026-04-30 09:51 | 13.20517 | 77.72012 | 2935 ft | 29 kts | 91° |
| 2026-04-30 09:52 | 13.20531 | 77.72152 | 2932 ft | 16 kts | 58° |
| 2026-04-30 09:52 | 13.20631 | 77.72176 | 2935 ft | 15 kts | 357° |
| 2026-04-30 09:52 | 13.20685 | 77.72116 | 2939 ft | 11 kts | 286° |
| 2026-04-30 09:52 | 13.20687 | 77.72084 | 2940 ft | 0 kts | 274° |
| 2026-04-30 09:53 | 13.20690 | 77.71909 | 2943 ft | 64 kts | 270° |
| 2026-04-30 09:53 | 13.20696 | 77.71165 | 2960 ft | 142 kts | 270° |
| 2026-04-30 09:53 | 13.20712 | 77.69902 | 2997 ft | 210 kts | 271° |
| 2026-04-30 09:54 | 13.20731 | 77.68277 | 3545 ft | 250 kts | 271° |
| 2026-04-30 09:54 | 13.20876 | 77.66286 | 3242 ft | 296 kts | 289° |
| 2026-04-30 09:54 | 13.21560 | 77.64517 | 4050 ft | 241 kts | 302° |
| 2026-04-30 09:54 | 13.22680 | 77.63146 | 4717 ft | 268 kts | 315° |
| 2026-04-30 09:55 | 13.24031 | 77.61627 | 5294 ft | 310 kts | 307° |
| 2026-04-30 09:55 | 13.25342 | 77.59679 | 5599 ft | 362 kts | 303° |
| 2026-04-30 09:55 | 13.26809 | 77.57338 | 5723 ft | 419 kts | 303° |
| 2026-04-30 09:55 | 13.28493 | 77.54667 | 5860 ft | 470 kts | 303° |
| 2026-04-30 09:56 | 13.30038 | 77.51545 | 6192 ft | 511 kts | 286° |
| 2026-04-30 09:56 | 13.30450 | 77.48035 | 6931 ft | 466 kts | 265° |
| 2026-04-30 09:56 | 13.29669 | 77.45048 | 7670 ft | 407 kts | 241° |
| 2026-04-30 09:56 | 13.27981 | 77.42970 | 8463 ft | 358 kts | 214° |
| 2026-04-30 09:57 | 13.25865 | 77.42070 | 9379 ft | 307 kts | 182° |
| 2026-04-30 09:57 | 13.23880 | 77.42350 | 10313 ft | 287 kts | 159° |
| 2026-04-30 09:57 | 13.21917 | 77.43061 | 11152 ft | 312 kts | 162° |
| 2026-04-30 09:57 | 13.19667 | 77.43269 | 11981 ft | 341 kts | 187° |
| 2026-04-30 09:58 | 13.17249 | 77.42721 | 12799 ft | 370 kts | 192° |
| 2026-04-30 09:58 | 13.14604 | 77.42617 | 13595 ft | 396 kts | 167° |
| 2026-04-30 09:58 | 13.12019 | 77.43680 | 14320 ft | 419 kts | 144° |
| 2026-04-30 09:58 | 13.09890 | 77.45829 | 15042 ft | 443 kts | 122° |
| 2026-04-30 09:59 | 13.07483 | 77.51986 | 16474 ft | 489 kts | 102° |
| 2026-04-30 09:59 | 13.06243 | 77.59115 | 17712 ft | 519 kts | 94° |
| 2026-04-30 10:00 | 13.05776 | 77.66337 | 17984 ft | 476 kts | 92° |
| 2026-04-30 10:00 | 13.05585 | 77.69663 | 18157 ft | 476 kts | 92° |
| 2026-04-30 10:01 | 13.05173 | 77.76589 | 18320 ft | 503 kts | 92° |
| 2026-04-30 10:01 | 13.04954 | 77.80219 | 18770 ft | 524 kts | 92° |
| 2026-04-30 10:01 | 13.04727 | 77.83977 | 19689 ft | 530 kts | 93° |
| 2026-04-30 10:02 | 13.04261 | 77.91661 | 21635 ft | 548 kts | 93° |
| 2026-04-30 10:02 | 13.04022 | 77.95607 | 22528 ft | 557 kts | 94° |
| 2026-04-30 10:02 | 13.03777 | 77.99612 | 23349 ft | 567 kts | 94° |
| 2026-04-30 10:02 | 13.03532 | 78.03626 | 24065 ft | 575 kts | 94° |
| 2026-04-30 10:03 | 13.03279 | 78.07752 | 24804 ft | 581 kts | 94° |
| 2026-04-30 10:03 | 13.03024 | 78.11907 | 25513 ft | 586 kts | 94° |
| 2026-04-30 10:03 | 13.02765 | 78.16105 | 26214 ft | 592 kts | 94° |
| 2026-04-30 10:03 | 13.02503 | 78.20351 | 26889 ft | 598 kts | 93° |
| 2026-04-30 10:04 | 13.02241 | 78.24583 | 27530 ft | 604 kts | 93° |
| 2026-04-30 10:04 | 13.01973 | 78.28913 | 28117 ft | 609 kts | 93° |
| 2026-04-30 10:04 | 13.01702 | 78.33268 | 28581 ft | 614 kts | 93° |
| 2026-04-30 10:04 | 13.01427 | 78.37673 | 28959 ft | 622 kts | 93° |
| 2026-04-30 10:05 | 13.01148 | 78.42130 | 29835 ft | 627 kts | 93° |
| 2026-04-30 10:05 | 13.00867 | 78.46604 | 30646 ft | 631 kts | 93° |
| 2026-04-30 10:05 | 13.00586 | 78.51066 | 31335 ft | 639 kts | 93° |
| 2026-04-30 10:05 | 13.00297 | 78.55648 | 32111 ft | 647 kts | 93° |
| 2026-04-30 10:06 | 13.00003 | 78.60296 | 32580 ft | 660 kts | 93° |
| 2026-04-30 10:06 | 12.99703 | 78.65034 | 32918 ft | 671 kts | 93° |
| 2026-04-30 10:06 | 12.99396 | 78.69847 | 33170 ft | 680 kts | 93° |
| 2026-04-30 10:06 | 12.99085 | 78.74721 | 33369 ft | 688 kts | 93° |
| 2026-04-30 10:07 | 12.98770 | 78.79640 | 33569 ft | 694 kts | 93° |
| 2026-04-30 10:07 | 12.98452 | 78.84592 | 33742 ft | 699 kts | 93° |
| 2026-04-30 10:07 | 12.98130 | 78.89587 | 33885 ft | 704 kts | 93° |
| 2026-04-30 10:07 | 12.97809 | 78.94557 | 34024 ft | 707 kts | 93° |
| 2026-04-30 10:08 | 12.97483 | 78.99602 | 34150 ft | 711 kts | 93° |
| 2026-04-30 10:08 | 12.97153 | 79.04678 | 34274 ft | 715 kts | 93° |
| 2026-04-30 10:08 | 12.96882 | 79.09769 | 34410 ft | 717 kts | 89° |
| 2026-04-30 10:08 | 12.96951 | 79.14890 | 34551 ft | 720 kts | 88° |
| 2026-04-30 10:09 | 12.97033 | 79.20066 | 34674 ft | 725 kts | 88° |
| 2026-04-30 10:09 | 12.97138 | 79.25246 | 34794 ft | 727 kts | 88° |
| 2026-04-30 10:09 | 12.97244 | 79.30402 | 34931 ft | 731 kts | 88° |
| 2026-04-30 10:09 | 12.97348 | 79.35639 | 35055 ft | 735 kts | 88° |
| 2026-04-30 10:10 | 12.97450 | 79.40900 | 35160 ft | 737 kts | 88° |
| 2026-04-30 10:10 | 12.97551 | 79.46180 | 35301 ft | 740 kts | 88° |
| 2026-04-30 10:10 | 12.97649 | 79.51410 | 35415 ft | 745 kts | 88° |
| 2026-04-30 10:10 | 12.97748 | 79.56721 | 35536 ft | 746 kts | 88° |
| 2026-04-30 10:11 | 12.97846 | 79.62069 | 35649 ft | 750 kts | 88° |
| 2026-04-30 10:11 | 12.97943 | 79.67429 | 35773 ft | 753 kts | 88° |
| 2026-04-30 10:11 | 12.98039 | 79.72815 | 35900 ft | 755 kts | 88° |
| 2026-04-30 10:11 | 12.98135 | 79.78226 | 36026 ft | 760 kts | 88° |
| 2026-04-30 10:12 | 12.98229 | 79.83649 | 36144 ft | 763 kts | 88° |
| 2026-04-30 10:12 | 12.98323 | 79.89039 | 36267 ft | 765 kts | 88° |
| 2026-04-30 10:12 | 12.98414 | 79.94422 | 36464 ft | 750 kts | 88° |
| 2026-04-30 10:12 | 12.98505 | 79.99793 | 36580 ft | 757 kts | 88° |
| 2026-04-30 10:13 | 12.98595 | 80.05196 | 36645 ft | 758 kts | 88° |
| 2026-04-30 10:13 | 12.98648 | 80.16083 | 36720 ft | 764 kts | 94° |
| 2026-04-30 10:14 | 12.97761 | 80.26909 | 36733 ft | 766 kts | 95° |
| 2026-04-30 10:14 | 12.96257 | 80.43293 | 36739 ft | 770 kts | 95° |
| 2026-04-30 10:15 | 12.95261 | 80.54194 | 36760 ft | 772 kts | 95° |
| 2026-04-30 10:15 | 12.94254 | 80.65186 | 36763 ft | 774 kts | 95° |
| 2026-04-30 10:16 | 12.93242 | 80.76186 | 36765 ft | 775 kts | 95° |
| 2026-04-30 10:17 | 12.91712 | 80.92738 | 36772 ft | 778 kts | 95° |
| 2026-04-30 10:17 | 12.90172 | 81.09265 | 36782 ft | 779 kts | 95° |
| 2026-04-30 10:18 | 12.89659 | 81.14747 | 36775 ft | 760 kts | 95° |
| 2026-04-30 10:18 | 12.89155 | 81.20130 | 36771 ft | 758 kts | 95° |
| 2026-04-30 10:19 | 12.87631 | 81.36315 | 36782 ft | 764 kts | 95° |
| 2026-04-30 10:19 | 12.86603 | 81.47170 | 36785 ft | 766 kts | 95° |
| 2026-04-30 10:20 | 12.85565 | 81.58072 | 36793 ft | 769 kts | 95° |
| 2026-04-30 10:20 | 12.84003 | 81.74408 | 36798 ft | 771 kts | 96° |
| 2026-04-30 10:21 | 12.82950 | 81.85357 | 36801 ft | 773 kts | 96° |
| 2026-04-30 10:21 | 12.81888 | 81.96347 | 36805 ft | 774 kts | 96° |
| 2026-04-30 10:22 | 12.80821 | 82.07349 | 36807 ft | 776 kts | 96° |
| 2026-04-30 10:22 | 12.79748 | 82.18361 | 36805 ft | 777 kts | 96° |
| 2026-04-30 10:23 | 12.78852 | 82.27517 | 36802 ft | 777 kts | 96° |
| 2026-04-30 10:23 | 12.77591 | 82.40355 | 36809 ft | 779 kts | 96° |
| 2026-04-30 10:24 | 12.76682 | 82.49562 | 36810 ft | 779 kts | 96° |
| 2026-04-30 10:24 | 12.75587 | 82.60621 | 36812 ft | 780 kts | 96° |
| 2026-04-30 10:25 | 12.74486 | 82.71686 | 36816 ft | 780 kts | 96° |
| 2026-04-30 10:25 | 12.73385 | 82.82699 | 36809 ft | 781 kts | 96° |
| 2026-04-30 10:26 | 12.72273 | 82.93784 | 36813 ft | 781 kts | 96° |
| 2026-04-30 10:26 | 12.70976 | 83.06655 | 36810 ft | 781 kts | 96° |
| 2026-04-30 10:27 | 12.70042 | 83.15878 | 36819 ft | 782 kts | 96° |
| 2026-04-30 10:27 | 12.68915 | 83.26970 | 36818 ft | 782 kts | 96° |
| 2026-04-30 10:28 | 12.67784 | 83.38056 | 36816 ft | 782 kts | 96° |
| 2026-04-30 10:28 | 12.66649 | 83.49134 | 36815 ft | 782 kts | 96° |
| 2026-04-30 10:29 | 12.64418 | 83.59946 | 36885 ft | 778 kts | 115° |
| 2026-04-30 10:29 | 12.59306 | 83.69717 | 36911 ft | 778 kts | 120° |
| 2026-04-30 10:30 | 12.54452 | 83.79573 | 36896 ft | 779 kts | 117° |
| 2026-04-30 10:30 | 12.49661 | 83.89539 | 36873 ft | 779 kts | 117° |
| 2026-04-30 10:31 | 12.44861 | 83.99501 | 36852 ft | 780 kts | 117° |
| 2026-04-30 10:31 | 12.40057 | 84.09453 | 36841 ft | 780 kts | 117° |
| 2026-04-30 10:32 | 12.35244 | 84.19409 | 36830 ft | 780 kts | 117° |
| 2026-04-30 10:32 | 12.30458 | 84.29297 | 36829 ft | 780 kts | 117° |
| 2026-04-30 10:33 | 12.25636 | 84.39249 | 36820 ft | 780 kts | 117° |
| 2026-04-30 10:33 | 12.20803 | 84.49212 | 36819 ft | 780 kts | 117° |
| 2026-04-30 10:34 | 12.16011 | 84.59080 | 36815 ft | 779 kts | 117° |
| 2026-04-30 10:34 | 12.11183 | 84.69011 | 36816 ft | 780 kts | 117° |
| 2026-04-30 10:35 | 12.06351 | 84.78940 | 36818 ft | 780 kts | 117° |
| 2026-04-30 10:35 | 12.01506 | 84.88883 | 36818 ft | 780 kts | 117° |
| 2026-04-30 10:36 | 11.96690 | 84.98758 | 36817 ft | 780 kts | 117° |
| 2026-04-30 10:36 | 11.91851 | 85.08669 | 36820 ft | 779 kts | 117° |
| 2026-04-30 10:37 | 11.87007 | 85.18580 | 36816 ft | 779 kts | 117° |
| 2026-04-30 10:37 | 11.82194 | 85.28416 | 36825 ft | 778 kts | 117° |
| 2026-04-30 10:38 | 11.77351 | 85.38303 | 36822 ft | 778 kts | 117° |
| 2026-04-30 10:38 | 11.72505 | 85.48186 | 36825 ft | 777 kts | 117° |
| 2026-04-30 10:39 | 11.67663 | 85.58050 | 36823 ft | 777 kts | 117° |
| 2026-04-30 10:39 | 11.62846 | 85.67854 | 36828 ft | 776 kts | 117° |
| 2026-04-30 10:40 | 11.58001 | 85.77704 | 36830 ft | 776 kts | 117° |
| 2026-04-30 10:40 | 11.53155 | 85.87545 | 36827 ft | 775 kts | 117° |
| 2026-04-30 10:41 | 11.48311 | 85.97373 | 36832 ft | 775 kts | 117° |
| 2026-04-30 10:41 | 11.43494 | 86.07136 | 36833 ft | 775 kts | 117° |
| 2026-04-30 10:42 | 11.38642 | 86.16960 | 36830 ft | 774 kts | 117° |
| 2026-04-30 10:42 | 11.33776 | 86.26803 | 36829 ft | 778 kts | 118° |
| 2026-04-30 10:43 | 11.28911 | 86.36633 | 36830 ft | 780 kts | 118° |
| 2026-04-30 10:43 | 11.24015 | 86.46517 | 36830 ft | 778 kts | 118° |
| 2026-04-30 10:44 | 11.19144 | 86.56339 | 36835 ft | 778 kts | 118° |
| 2026-04-30 10:44 | 11.14257 | 86.66184 | 36834 ft | 778 kts | 118° |
| 2026-04-30 10:45 | 11.09403 | 86.75954 | 36832 ft | 777 kts | 118° |
| 2026-04-30 10:45 | 11.04515 | 86.85780 | 36834 ft | 777 kts | 118° |
| 2026-04-30 10:46 | 10.99630 | 86.95594 | 36835 ft | 776 kts | 118° |
| 2026-04-30 10:46 | 10.94747 | 87.05392 | 36833 ft | 775 kts | 118° |
| 2026-04-30 10:47 | 10.89886 | 87.15136 | 36830 ft | 775 kts | 118° |
| 2026-04-30 10:47 | 10.85002 | 87.24918 | 36833 ft | 774 kts | 118° |
| 2026-04-30 10:48 | 10.80118 | 87.34692 | 36832 ft | 774 kts | 118° |
| 2026-04-30 10:48 | 10.75234 | 87.44455 | 36833 ft | 773 kts | 118° |
| 2026-04-30 10:49 | 10.70355 | 87.54197 | 36829 ft | 773 kts | 118° |
| 2026-04-30 10:49 | 10.65510 | 87.63865 | 36833 ft | 772 kts | 118° |
| 2026-04-30 10:50 | 10.60629 | 87.73594 | 36828 ft | 772 kts | 118° |
| 2026-04-30 10:50 | 10.55753 | 87.83304 | 36830 ft | 771 kts | 118° |
| 2026-04-30 10:51 | 10.50873 | 87.93013 | 36828 ft | 771 kts | 118° |
| 2026-04-30 10:51 | 10.45989 | 88.02724 | 36833 ft | 770 kts | 118° |
| 2026-04-30 10:52 | 10.41133 | 88.12368 | 36831 ft | 770 kts | 118° |
| 2026-04-30 10:52 | 10.36249 | 88.22057 | 36833 ft | 770 kts | 118° |
| 2026-04-30 10:53 | 10.31362 | 88.31746 | 36827 ft | 769 kts | 118° |
| 2026-04-30 10:53 | 10.26478 | 88.41419 | 36832 ft | 769 kts | 118° |
| 2026-04-30 10:54 | 10.21605 | 88.51035 | 36831 ft | 768 kts | 118° |
| 2026-04-30 10:54 | 10.17026 | 88.60835 | 36834 ft | 769 kts | 116° |
| 2026-04-30 10:55 | 10.12514 | 88.70686 | 36835 ft | 769 kts | 116° |
| 2026-04-30 10:55 | 10.07998 | 88.80540 | 36830 ft | 768 kts | 116° |
| 2026-04-30 10:56 | 10.03513 | 88.90311 | 36832 ft | 769 kts | 116° |
| 2026-04-30 10:56 | 9.98980 | 89.00175 | 36831 ft | 768 kts | 116° |
| 2026-04-30 10:57 | 9.94479 | 89.09961 | 36830 ft | 768 kts | 116° |
| 2026-04-30 10:57 | 9.89947 | 89.19804 | 36830 ft | 768 kts | 116° |
| 2026-04-30 10:58 | 9.85416 | 89.29636 | 36830 ft | 768 kts | 116° |
| 2026-04-30 10:58 | 9.80915 | 89.39396 | 36830 ft | 767 kts | 116° |
| 2026-04-30 10:59 | 9.76385 | 89.49209 | 36828 ft | 767 kts | 116° |
| 2026-04-30 10:59 | 9.71856 | 89.59011 | 36819 ft | 767 kts | 116° |
| 2026-04-30 11:00 | 9.67327 | 89.68806 | 36823 ft | 766 kts | 116° |
| 2026-04-30 11:00 | 9.62800 | 89.78586 | 36820 ft | 766 kts | 116° |
| 2026-04-30 11:01 | 9.58295 | 89.88310 | 36815 ft | 765 kts | 116° |
| 2026-04-30 11:01 | 9.53771 | 89.98066 | 36826 ft | 764 kts | 116° |
| 2026-04-30 11:02 | 9.49242 | 90.07826 | 36824 ft | 764 kts | 116° |
| 2026-04-30 11:02 | 9.44714 | 90.17575 | 36831 ft | 763 kts | 116° |
| 2026-04-30 11:03 | 9.40216 | 90.27250 | 36828 ft | 763 kts | 116° |
| 2026-04-30 11:04 | 9.33433 | 90.41827 | 36831 ft | 763 kts | 116° |
| 2026-04-30 11:04 | 9.28907 | 90.51542 | 36829 ft | 763 kts | 116° |
| 2026-04-30 11:05 | 9.24381 | 90.61250 | 36830 ft | 762 kts | 116° |
| 2026-04-30 11:05 | 9.19853 | 90.70953 | 36827 ft | 761 kts | 116° |
| 2026-04-30 11:06 | 9.15331 | 90.80636 | 36830 ft | 760 kts | 116° |
| 2026-04-30 11:06 | 9.10806 | 90.90316 | 36830 ft | 760 kts | 116° |
| 2026-04-30 11:07 | 9.06314 | 90.99920 | 36831 ft | 760 kts | 116° |
| 2026-04-30 11:07 | 9.01788 | 91.09588 | 36826 ft | 760 kts | 116° |
| 2026-04-30 11:08 | 8.97261 | 91.19249 | 36828 ft | 760 kts | 116° |
| 2026-04-30 11:08 | 8.92727 | 91.28920 | 36827 ft | 759 kts | 116° |
| 2026-04-30 11:09 | 8.88195 | 91.38577 | 36826 ft | 759 kts | 116° |
| 2026-04-30 11:09 | 8.83667 | 91.48216 | 36828 ft | 759 kts | 116° |
| 2026-04-30 11:10 | 8.79164 | 91.57798 | 36824 ft | 758 kts | 116° |
| 2026-04-30 11:10 | 8.74640 | 91.67414 | 36825 ft | 757 kts | 116° |
| 2026-04-30 11:11 | 8.70107 | 91.77044 | 36825 ft | 757 kts | 116° |
| 2026-04-30 11:11 | 8.66345 | 91.85030 | 36827 ft | 756 kts | 116° |
| 2026-04-30 11:12 | 8.61811 | 91.94647 | 36826 ft | 756 kts | 116° |
| 2026-04-30 11:12 | 8.57377 | 92.04297 | 36825 ft | 756 kts | 115° |
| 2026-04-30 11:13 | 8.53115 | 92.13939 | 36827 ft | 755 kts | 115° |
| 2026-04-30 11:13 | 8.48823 | 92.23633 | 36822 ft | 754 kts | 115° |
| 2026-04-30 11:14 | 8.44533 | 92.33307 | 36822 ft | 754 kts | 115° |
| 2026-04-30 11:14 | 8.40262 | 92.42930 | 36817 ft | 754 kts | 115° |
| 2026-04-30 11:15 | 8.35964 | 92.52605 | 36819 ft | 754 kts | 115° |
| 2026-04-30 11:15 | 8.31668 | 92.62267 | 36821 ft | 754 kts | 115° |
| 2026-04-30 11:16 | 8.27396 | 92.71868 | 36816 ft | 753 kts | 115° |
| 2026-04-30 11:16 | 8.23099 | 92.81519 | 36818 ft | 753 kts | 115° |
| 2026-04-30 11:17 | 8.18845 | 92.91091 | 36813 ft | 735 kts | 115° |
| 2026-04-30 11:17 | 8.16751 | 92.95766 | 36795 ft | 723 kts | 115° |
| 2026-04-30 11:17 | 8.14700 | 93.00357 | 36797 ft | 712 kts | 115° |
| 2026-04-30 11:18 | 8.10683 | 93.09357 | 36786 ft | 692 kts | 115° |
| 2026-04-30 11:18 | 8.06798 | 93.18061 | 36781 ft | 675 kts | 115° |
| 2026-04-30 11:18 | 8.04878 | 93.22358 | 36781 ft | 667 kts | 115° |
| 2026-04-30 11:19 | 8.01103 | 93.30804 | 36780 ft | 652 kts | 115° |
| 2026-04-30 11:19 | 7.97407 | 93.39066 | 36811 ft | 639 kts | 116° |
| 2026-04-30 11:20 | 7.93777 | 93.47160 | 36857 ft | 623 kts | 116° |
| 2026-04-30 11:20 | 7.92025 | 93.51071 | 36882 ft | 597 kts | 115° |
| 2026-04-30 11:20 | 7.90397 | 93.54788 | 36913 ft | 562 kts | 116° |
| 2026-04-30 11:21 | 7.88837 | 93.58303 | 37031 ft | 538 kts | 116° |
| 2026-04-30 11:21 | 7.87332 | 93.61682 | 37134 ft | 518 kts | 116° |
| 2026-04-30 11:21 | 7.85900 | 93.64901 | 37209 ft | 501 kts | 116° |
| 2026-04-30 11:21 | 7.84492 | 93.68067 | 37249 ft | 487 kts | 116° |
| 2026-04-30 11:22 | 7.83121 | 93.71152 | 37249 ft | 476 kts | 116° |
| 2026-04-30 11:22 | 7.81780 | 93.74169 | 37242 ft | 466 kts | 116° |
| 2026-04-30 11:22 | 7.79179 | 93.80018 | 37214 ft | 449 kts | 117° |
| 2026-04-30 11:23 | 7.76679 | 93.85637 | 37194 ft | 433 kts | 117° |
| 2026-04-30 11:23 | 7.74243 | 93.91109 | 37178 ft | 420 kts | 117° |
| 2026-04-30 11:24 | 7.73057 | 93.93773 | 37159 ft | 413 kts | 117° |
| 2026-04-30 11:24 | 7.71879 | 93.96416 | 36986 ft | 412 kts | 117° |
| 2026-04-30 11:24 | 7.70714 | 93.99030 | 36919 ft | 404 kts | 117° |
| 2026-04-30 11:25 | 7.68510 | 94.03959 | 36889 ft | 367 kts | 117° |
| 2026-04-30 11:25 | 7.67507 | 94.06226 | 36878 ft | 350 kts | 117° |
| 2026-04-30 11:25 | 7.65610 | 94.10500 | 36872 ft | 317 kts | 117° |
| 2026-04-30 11:26 | 7.63935 | 94.14267 | 36305 ft | 273 kts | 117° |
| 2026-04-30 11:26 | 7.63142 | 94.16026 | 34928 ft | 283 kts | 117° |
| 2026-04-30 11:26 | 7.62310 | 94.17865 | 33569 ft | 297 kts | 117° |
| 2026-04-30 11:27 | 7.61476 | 94.19737 | 32672 ft | 278 kts | 116° |
| 2026-04-30 11:27 | 7.60618 | 94.21477 | 31786 ft | 286 kts | 126° |
| 2026-04-30 11:27 | 7.59152 | 94.22968 | 30035 ft | 325 kts | 159° |
| 2026-04-30 11:27 | 7.56796 | 94.23021 | 26839 ft | 382 kts | 213° |
| 2026-04-30 11:28 | 7.55666 | 94.17416 | 15766 ft | 526 kts | 303° |
| 2026-04-30 11:28 | 7.57574 | 94.15450 | 10235 ft | 557 kts | 330° |